KDRI/DRI METAR and TAF weather

Enter ICAO airport designator
Station Type Date Time Source
KDRI METAR 2020/09/21 06:55 UTC NOAA

KDRI 210655Z AUTO 06011G17KT 10SM OVC019 22/17 A3002 RMK AO2 T02170170


Station Type Date Time Source
KDRI Decoded METAR 2020/09/21 06:55 UTC NOAA

De Ridder, Beauregard Parish Airport, LA, United States (KDRI) 30-49-54N 093-20-23W
Sep 21, 2020 - 02:55 AM EDT / 2020.09.21 0655 UTC
Wind: from the ENE (060 degrees) at 13 MPH (11 KT) gusting to 20 MPH (17 KT):0
Visibility: 10 mile(s):0
Sky conditions: overcast
Temperature: 71.1 F (21.7 C)
Dew Point: 62.6 F (17.0 C)
Relative Humidity: 74%
Pressure (altimeter): 30.02 in. Hg (1016 hPa)
ob: KDRI 210655Z AUTO 06011G17KT 10SM OVC019 22/17 A3002 RMK AO2 T02170170
cycle: 7

Station Type Date Time Source
KDRI TAF UTC NOAA

Error!

Example: see airport list